Time;durP1;ratioP1;P1;durP2;ratioP2;P2;SDS_P1;SDS_P2;PMS_P1;PMS_P2;Temp;Humidity;BMP_temperature;BMP_pressure;BME280_temperature;BME280_humidity;BME280_pressure;Samples;Min_cycle;Max_cycle;Signal;HPM_P1;HPM_P2
2021/12/25 00:02:07;;;;;;;6.40;1.42;;;-1.50;99.90;;;;;;5048196;28;20051;-67
2021/12/25 00:04:33;;;;;;;4.60;1.10;;;-1.50;99.90;;;;;;5048048;28;20375;-67
2021/12/25 00:06:58;;;;;;;5.88;1.00;;;-1.50;99.90;;;;;;5046278;28;20041;-68
2021/12/25 00:09:25;;;;;;;2.15;0.80;;;-1.60;99.90;;;;;;5046143;28;20444;-67
2021/12/25 00:11:51;;;;;;;4.45;1.08;;;-1.60;99.90;;;;;;5046586;28;20049;-66
2021/12/25 00:14:17;;;;;;;6.15;1.50;;;-1.70;99.90;;;;;;5047213;28;20075;-67
2021/12/25 00:16:42;;;;;;;4.18;1.13;;;-1.70;99.90;;;;;;5049799;28;20065;-67
2021/12/25 00:19:08;;;;;;;5.25;1.55;;;-1.80;99.90;;;;;;5044787;28;20376;-67
2021/12/25 00:21:34;;;;;;;6.07;1.70;;;-1.80;99.90;;;;;;5047594;28;20052;-67
2021/12/25 00:24:00;;;;;;;8.48;1.38;;;-1.80;99.90;;;;;;5048449;28;20074;-67
2021/12/25 00:26:40;;;;;;;4.05;1.20;;;-1.90;99.90;;;;;;5044008;28;20045;-68
2021/12/25 00:29:32;;;;;;;8.95;1.58;;;-1.90;99.90;;;;;;5048358;28;20048;-68
2021/12/25 00:32:09;;;;;;;6.03;1.30;;;-1.90;99.90;;;;;;5047751;28;20422;-68
2021/12/25 00:34:36;;;;;;;4.80;1.05;;;-2.00;99.90;;;;;;5041282;28;20045;-66
2021/12/25 00:37:03;;;;;;;5.32;1.35;;;-2.00;99.90;;;;;;5046266;28;20355;-66
2021/12/25 00:39:30;;;;;;;10.38;2.75;;;-2.00;99.90;;;;;;5049552;28;20416;-66
2021/12/25 00:42:01;;;;;;;10.30;1.38;;;-2.00;99.90;;;;;;5044945;28;20174;-67
2021/12/25 00:44:28;;;;;;;5.68;1.45;;;-2.10;99.90;;;;;;5045000;28;20049;-67
2021/12/25 00:46:57;;;;;;;4.82;1.08;;;-2.10;99.90;;;;;;5047797;28;20121;-66
2021/12/25 00:49:23;;;;;;;3.53;1.05;;;-2.10;99.90;;;;;;5048039;28;20057;-67
2021/12/25 00:51:52;;;;;;;7.07;1.15;;;-2.20;99.90;;;;;;5046511;28;20045;-68
2021/12/25 00:54:19;;;;;;;3.33;0.90;;;-2.20;99.90;;;;;;5047066;28;20053;-67
2021/12/25 00:56:44;;;;;;;4.90;1.10;;;-2.30;99.90;;;;;;5044428;28;20124;-69
2021/12/25 00:59:10;;;;;;;2.65;0.93;;;-2.30;99.90;;;;;;5045461;28;20562;-68
2021/12/25 01:01:36;;;;;;;2.13;1.10;;;-2.40;99.90;;;;;;5046245;28;20059;-68
2021/12/25 01:04:03;;;;;;;2.15;1.00;;;-2.40;99.90;;;;;;5048034;28;20072;-67
2021/12/25 01:06:29;;;;;;;1.83;0.93;;;-2.40;99.90;;;;;;5050855;28;20056;-67
2021/12/25 01:08:54;;;;;;;2.75;1.05;;;-2.40;99.90;;;;;;5044842;28;20041;-68
2021/12/25 01:11:23;;;;;;;3.22;0.85;;;-2.50;99.90;;;;;;5047306;28;20044;-68
2021/12/25 01:13:55;;;;;;;5.95;1.48;;;-2.50;99.90;;;;;;5047204;28;21130;-68
2021/12/25 01:19:41;;;;;;;4.75;1.15;;;-2.50;99.90;;;;;;5047750;28;20060;-67
2021/12/25 01:22:32;;;;;;;2.08;1.10;;;-2.60;99.90;;;;;;5046283;28;20164;-67
2021/12/25 01:38:19;;;;;;;1.70;0.70;;;-2.80;99.90;;;;;;5047377;28;20052;-67
2021/12/25 01:40:57;;;;;;;1.83;0.95;;;-2.80;99.90;;;;;;5049100;28;20064;-67
2021/12/25 01:48:51;;;;;;;2.97;1.00;;;-2.90;99.90;;;;;;5050288;28;20479;-65
2021/12/25 01:51:17;;;;;;;2.92;0.95;;;-2.90;99.90;;;;;;5051038;28;20089;-67
2021/12/25 01:53:42;;;;;;;2.28;1.00;;;-2.90;99.90;;;;;;5048202;28;20087;-67
2021/12/25 01:56:08;;;;;;;1.35;0.80;;;-2.90;99.90;;;;;;5046271;28;20407;-66
2021/12/25 01:58:35;;;;;;;3.30;0.80;;;-3.00;99.90;;;;;;5050837;28;20083;-67
2021/12/25 02:01:03;;;;;;;2.22;0.95;;;-3.00;99.90;;;;;;5046132;28;20048;-68
2021/12/25 02:03:30;;;;;;;5.38;0.93;;;-3.00;99.90;;;;;;5047299;28;20053;-67
2021/12/25 02:05:57;;;;;;;3.22;0.88;;;-3.00;99.90;;;;;;5048592;28;20057;-67
2021/12/25 02:08:24;;;;;;;5.07;1.13;;;-3.10;99.90;;;;;;5052363;28;20056;-68
2021/12/25 02:10:50;;;;;;;4.75;0.98;;;-3.10;99.90;;;;;;5050349;28;20041;-66
2021/12/25 02:13:18;;;;;;;3.40;0.90;;;-3.10;99.90;;;;;;5048833;28;20040;-66
2021/12/25 02:15:48;;;;;;;1.93;0.80;;;-3.10;99.90;;;;;;5050265;28;20029;-66
2021/12/25 02:18:21;;;;;;;3.15;1.00;;;-3.10;99.90;;;;;;5041200;28;20045;-67
2021/12/25 02:23:22;;;;;;;3.22;0.77;;;-3.20;99.90;;;;;;5052022;28;20076;-67
2021/12/25 02:25:54;;;;;;;3.45;0.73;;;-3.20;99.90;;;;;;5053771;28;20093;-68
2021/12/25 02:28:20;;;;;;;1.40;0.60;;;-3.20;99.90;;;;;;5068966;28;20103;-67
2021/12/25 02:30:48;;;;;;;4.13;0.90;;;-3.20;99.90;;;;;;5054549;28;20051;-68
2021/12/25 02:33:16;;;;;;;3.55;0.93;;;-3.20;99.90;;;;;;5053102;28;20033;-68
2021/12/25 02:35:42;;;;;;;2.40;0.63;;;-3.20;99.90;;;;;;5070118;28;20075;-67
2021/12/25 02:38:13;;;;;;;2.35;0.90;;;-3.20;99.90;;;;;;5042833;28;20045;-67
2021/12/25 02:40:40;;;;;;;3.05;0.80;;;-3.20;99.90;;;;;;5066266;28;20537;-67
2021/12/25 02:43:06;;;;;;;1.95;0.63;;;-3.20;99.90;;;;;;5054215;28;20048;-66
2021/12/25 02:45:32;;;;;;;1.80;0.80;;;-3.20;99.90;;;;;;5051189;28;20372;-66
2021/12/25 02:48:07;;;;;;;4.85;1.15;;;-3.30;99.90;;;;;;5045103;28;20064;-67
2021/12/25 02:50:35;;;;;;;1.60;0.57;;;-3.30;99.90;;;;;;5028971;28;20067;-69
2021/12/25 02:53:04;;;;;;;3.88;1.08;;;-3.30;99.90;;;;;;5049312;28;20086;-66
2021/12/25 02:55:31;;;;;;;1.08;0.55;;;-3.30;99.90;;;;;;5052342;28;20041;-67
2021/12/25 02:57:57;;;;;;;0.63;0.38;;;-3.30;99.90;;;;;;5052054;28;20052;-67
2021/12/25 03:00:26;;;;;;;2.38;0.47;;;-3.40;99.90;;;;;;5052197;28;20033;-67
2021/12/25 03:02:52;;;;;;;1.55;0.80;;;-3.40;99.90;;;;;;5045837;28;20044;-67
2021/12/25 03:05:18;;;;;;;1.55;0.63;;;-3.40;99.90;;;;;;5039837;28;20086;-66
2021/12/25 03:07:44;;;;;;;1.52;0.47;;;-3.40;99.90;;;;;;5052813;28;20067;-66
2021/12/25 03:10:11;;;;;;;1.65;0.57;;;-3.40;99.90;;;;;;5053105;28;20041;-66
2021/12/25 03:12:49;;;;;;;1.58;0.60;;;-3.50;99.90;;;;;;5050607;28;20037;-66
2021/12/25 03:15:25;;;;;;;3.20;0.98;;;-3.50;99.90;;;;;;5050919;28;20037;-66
2021/12/25 03:17:51;;;;;;;2.42;0.70;;;-3.50;99.90;;;;;;5032008;28;20057;-66
2021/12/25 03:20:17;;;;;;;1.42;0.68;;;-3.50;99.90;;;;;;5049666;28;20098;-66
2021/12/25 03:22:42;;;;;;;2.25;0.77;;;-3.50;99.90;;;;;;5067874;28;20048;-67
2021/12/25 03:25:10;;;;;;;2.03;0.63;;;-3.50;99.90;;;;;;5049941;28;20047;-67
2021/12/25 03:27:38;;;;;;;1.45;0.90;;;-3.50;99.90;;;;;;5048262;28;20599;-67
2021/12/25 03:30:07;;;;;;;6.03;0.43;;;-3.60;99.90;;;;;;5044867;28;20029;-67
2021/12/25 03:32:33;;;;;;;2.15;0.75;;;-3.60;99.90;;;;;;5050740;28;20664;-65
2021/12/25 03:34:58;;;;;;;3.70;0.88;;;-3.60;99.90;;;;;;5053476;28;20099;-66
2021/12/25 03:37:24;;;;;;;1.25;0.63;;;-3.60;99.90;;;;;;5052353;28;20043;-66
2021/12/25 03:39:50;;;;;;;2.47;0.68;;;-3.60;99.90;;;;;;5067470;28;20056;-66
2021/12/25 03:42:16;;;;;;;4.28;1.00;;;-3.60;99.90;;;;;;5050473;28;20041;-67
2021/12/25 03:44:41;;;;;;;2.22;0.57;;;-3.60;99.90;;;;;;5049601;28;20056;-68
2021/12/25 03:47:21;;;;;;;2.75;0.90;;;-3.60;99.90;;;;;;5050647;28;20069;-65
2021/12/25 03:58:03;;;;;;;0.85;0.57;;;-3.70;99.90;;;;;;5055631;28;20124;-66
2021/12/25 04:00:31;;;;;;;1.92;0.50;;;-3.70;99.90;;;;;;5051639;28;20053;-67
2021/12/25 04:03:02;;;;;;;1.77;0.60;;;-3.70;99.90;;;;;;5051344;28;20052;-66
2021/12/25 04:05:32;;;;;;;4.35;0.80;;;-3.80;99.90;;;;;;5051281;28;20053;-67
2021/12/25 04:08:07;;;;;;;1.02;0.80;;;-3.80;99.90;;;;;;5044668;28;20118;-68
2021/12/25 04:10:36;;;;;;;1.75;0.40;;;-3.80;99.90;;;;;;5052630;28;20045;-66
2021/12/25 04:13:08;;;;;;;1.77;0.70;;;-3.80;99.90;;;;;;5051829;28;20121;-66
2021/12/25 04:15:35;;;;;;;0.98;0.65;;;-3.80;99.90;;;;;;5035588;28;20056;-67
2021/12/25 04:18:00;;;;;;;0.80;0.70;;;-3.80;99.90;;;;;;5065740;28;20152;-65
2021/12/25 04:20:27;;;;;;;1.55;0.70;;;-3.90;99.90;;;;;;5049174;28;20120;-67
2021/12/25 04:23:04;;;;;;;3.20;0.70;;;-3.90;99.90;;;;;;5044909;28;20072;-67
2021/12/25 04:25:33;;;;;;;2.17;0.73;;;-3.90;99.90;;;;;;5052096;28;20160;-68
2021/12/25 04:28:10;;;;;;;1.67;0.70;;;-3.90;99.90;;;;;;5051426;28;20051;-66
2021/12/25 04:31:00;;;;;;;3.75;0.80;;;-4.00;99.90;;;;;;5046306;28;20047;-67
2021/12/25 05:03:53;;;;;;;1.50;0.77;;;-4.10;99.90;;;;;;5041102;28;20053;-67
2021/12/25 05:06:22;;;;;;;3.00;0.88;;;-4.20;99.90;;;;;;5046549;28;20063;-67
2021/12/25 05:08:49;;;;;;;3.78;0.82;;;-4.20;99.90;;;;;;5049985;28;20575;-67
2021/12/25 05:11:15;;;;;;;3.13;1.05;;;-4.20;99.90;;;;;;5066327;28;20045;-67
2021/12/25 05:13:42;;;;;;;2.30;0.85;;;-4.20;99.90;;;;;;5035505;28;20145;-67
2021/12/25 05:16:07;;;;;;;0.55;0.55;;;-4.20;99.90;;;;;;5048049;28;20052;-66
2021/12/25 05:18:33;;;;;;;2.50;0.80;;;-4.10;99.90;;;;;;5049101;28;20049;-65
2021/12/25 05:20:59;;;;;;;1.65;0.82;;;-4.20;99.90;;;;;;5050738;28;20120;-66
2021/12/25 05:23:26;;;;;;;1.40;0.75;;;-4.20;99.90;;;;;;5059918;28;20181;-67
2021/12/25 05:25:52;;;;;;;1.63;0.70;;;-4.30;99.90;;;;;;5053847;28;20076;-66
2021/12/25 05:28:24;;;;;;;1.02;0.40;;;-4.20;99.90;;;;;;5044906;28;20083;-66
2021/12/25 05:30:51;;;;;;;1.42;0.70;;;-4.30;99.90;;;;;;5040664;28;20550;-65
2021/12/25 05:33:17;;;;;;;2.83;0.60;;;-4.30;99.90;;;;;;5045511;28;20049;-66
2021/12/25 05:35:43;;;;;;;3.30;0.90;;;-4.30;99.90;;;;;;5049554;28;20131;-66
2021/12/25 05:38:14;;;;;;;6.45;0.95;;;-4.30;99.90;;;;;;5049284;28;20032;-67
2021/12/25 05:40:43;;;;;;;1.40;0.63;;;-4.30;99.90;;;;;;5051668;28;20052;-67
2021/12/25 05:43:09;;;;;;;3.47;0.50;;;-4.40;99.90;;;;;;5048036;28;20049;-66
2021/12/25 05:45:35;;;;;;;1.55;0.60;;;-4.30;99.90;;;;;;5041571;28;20438;-65
2021/12/25 05:48:01;;;;;;;2.15;0.60;;;-4.30;99.90;;;;;;5045275;28;20041;-66
2021/12/25 05:50:26;;;;;;;4.63;0.85;;;-4.30;99.90;;;;;;5043758;28;20087;-66
2021/12/25 05:52:54;;;;;;;7.40;0.90;;;-4.30;99.90;;;;;;5046552;28;20137;-66
2021/12/25 05:55:19;;;;;;;1.55;0.80;;;-4.30;99.90;;;;;;5040954;28;20138;-65
2021/12/25 05:57:45;;;;;;;3.22;0.80;;;-4.20;99.90;;;;;;5042230;28;20495;-67
2021/12/25 06:00:13;;;;;;;4.10;1.00;;;-4.20;99.90;;;;;;5041614;28;20044;-67
2021/12/25 06:02:38;;;;;;;2.80;0.75;;;-4.20;99.90;;;;;;5040523;28;20064;-66
2021/12/25 06:05:06;;;;;;;3.22;0.80;;;-4.30;99.90;;;;;;5045996;28;20037;-67
2021/12/25 06:07:33;;;;;;;4.93;1.07;;;-4.30;99.90;;;;;;5042769;28;20107;-66
2021/12/25 06:09:59;;;;;;;3.80;0.77;;;-4.20;99.90;;;;;;5058670;28;20335;-68
2021/12/25 06:12:26;;;;;;;1.52;0.60;;;-4.20;99.90;;;;;;5045856;28;20077;-66
2021/12/25 06:14:53;;;;;;;3.92;0.68;;;-4.20;99.90;;;;;;5049551;28;20083;-66
2021/12/25 06:17:19;;;;;;;2.08;0.57;;;-4.20;99.90;;;;;;5040977;28;20152;-66
2021/12/25 06:19:44;;;;;;;1.33;0.82;;;-4.20;99.90;;;;;;5045209;28;20550;-67
2021/12/25 06:22:10;;;;;;;1.63;0.85;;;-4.20;99.90;;;;;;5046698;28;20128;-66
2021/12/25 06:24:36;;;;;;;1.80;1.00;;;-4.20;99.90;;;;;;5050804;28;20044;-66
2021/12/25 06:27:02;;;;;;;3.67;1.35;;;-4.20;99.90;;;;;;5045036;28;20049;-66
2021/12/25 06:29:27;;;;;;;1.83;0.73;;;-4.20;99.90;;;;;;5051401;28;20045;-65
2021/12/25 06:31:53;;;;;;;2.05;1.02;;;-4.20;99.90;;;;;;5063270;28;20131;-67
2021/12/25 06:34:22;;;;;;;1.80;0.88;;;-4.20;99.90;;;;;;5050788;28;20053;-67
2021/12/25 06:36:47;;;;;;;1.85;0.80;;;-4.20;99.90;;;;;;5047070;28;20090;-67
2021/12/25 06:39:15;;;;;;;1.25;0.75;;;-4.20;99.90;;;;;;5046911;28;20037;-66
2021/12/25 06:41:42;;;;;;;6.03;1.55;;;-4.20;99.90;;;;;;5065533;28;20075;-67
2021/12/25 06:44:08;;;;;;;1.48;0.75;;;-4.20;99.90;;;;;;5049310;28;20037;-66
2021/12/25 06:46:34;;;;;;;1.52;0.60;;;-4.20;99.90;;;;;;5047061;28;20044;-66
2021/12/25 06:48:59;;;;;;;3.50;0.80;;;-4.20;99.90;;;;;;5043913;28;20034;-66
2021/12/25 06:51:25;;;;;;;2.20;0.80;;;-4.20;99.90;;;;;;5045280;28;20048;-65
2021/12/25 06:53:51;;;;;;;2.00;0.98;;;-4.20;99.90;;;;;;5065845;28;20092;-66
2021/12/25 06:56:17;;;;;;;4.20;1.00;;;-4.20;99.90;;;;;;5048835;28;20498;-65
2021/12/25 06:58:43;;;;;;;3.90;0.80;;;-4.20;99.90;;;;;;5047874;28;20053;-67
2021/12/25 07:01:09;;;;;;;4.95;0.80;;;-4.20;99.90;;;;;;5045121;28;20051;-66
2021/12/25 07:03:35;;;;;;;2.45;0.90;;;-4.20;99.90;;;;;;5049335;28;20049;-65
2021/12/25 07:06:00;;;;;;;3.63;0.90;;;-4.30;99.90;;;;;;5049559;28;20396;-67
2021/12/25 07:08:26;;;;;;;1.25;0.60;;;-4.30;99.90;;;;;;5052456;28;20049;-66
2021/12/25 07:10:52;;;;;;;3.25;0.80;;;-4.30;99.90;;;;;;5050683;28;20419;-66
2021/12/25 07:13:19;;;;;;;1.67;0.70;;;-4.30;99.90;;;;;;5051985;28;20036;-66
2021/12/25 07:15:47;;;;;;;2.92;0.90;;;-4.40;99.90;;;;;;5052453;28;20064;-66
2021/12/25 07:18:12;;;;;;;2.17;0.75;;;-4.40;99.90;;;;;;5050599;28;20140;-65
2021/12/25 07:20:39;;;;;;;6.80;0.80;;;-4.40;99.90;;;;;;5039331;28;20055;-65
2021/12/25 07:23:04;;;;;;;1.67;0.85;;;-4.50;99.90;;;;;;5047889;28;20064;-66
2021/12/25 07:25:30;;;;;;;1.70;0.75;;;-4.50;99.90;;;;;;5049642;28;20439;-66
2021/12/25 07:27:56;;;;;;;3.05;0.80;;;-4.50;99.90;;;;;;5051159;28;20053;-65
2021/12/25 07:30:22;;;;;;;5.28;0.90;;;-4.50;99.90;;;;;;5068301;28;20049;-66
2021/12/25 07:32:48;;;;;;;0.90;0.65;;;-4.50;99.90;;;;;;5042172;28;20139;-66
2021/12/25 07:35:13;;;;;;;1.83;0.85;;;-4.50;99.90;;;;;;5050890;28;20050;-66
2021/12/25 07:37:39;;;;;;;2.88;0.98;;;-4.60;99.90;;;;;;5067062;28;20029;-66
2021/12/25 07:40:09;;;;;;;5.00;1.10;;;-4.60;99.90;;;;;;5050275;28;20045;-68
2021/12/25 07:42:35;;;;;;;5.55;1.02;;;-4.60;99.90;;;;;;5053257;28;20128;-65
2021/12/25 07:45:05;;;;;;;2.47;0.90;;;-4.60;99.90;;;;;;5051860;28;20065;-67
2021/12/25 07:47:34;;;;;;;2.13;1.00;;;-4.70;99.90;;;;;;5052805;28;20098;-67
2021/12/25 07:50:00;;;;;;;1.30;0.70;;;-4.70;99.90;;;;;;5052688;28;20064;-65
2021/12/25 07:52:27;;;;;;;5.57;1.00;;;-4.70;99.90;;;;;;5049583;28;20052;-65
2021/12/25 07:54:53;;;;;;;4.15;1.23;;;-4.70;99.90;;;;;;5049908;28;20575;-66
2021/12/25 07:57:19;;;;;;;4.07;0.98;;;-4.70;99.90;;;;;;5052604;28;20048;-65
2021/12/25 07:59:44;;;;;;;7.00;1.30;;;-4.70;99.90;;;;;;5051901;28;20037;-66
2021/12/25 08:02:10;;;;;;;3.05;1.00;;;-4.70;99.90;;;;;;5048152;28;20037;-67
2021/12/25 08:04:36;;;;;;;2.42;1.10;;;-4.70;99.90;;;;;;5050637;28;20056;-65
2021/12/25 08:07:02;;;;;;;4.63;1.02;;;-4.70;99.90;;;;;;5067606;28;20045;-67
2021/12/25 08:09:29;;;;;;;6.90;1.63;;;-4.70;99.90;;;;;;5047131;28;20098;-67
2021/12/25 08:11:56;;;;;;;2.58;1.20;;;-4.70;99.90;;;;;;5031169;28;20079;-65
2021/12/25 08:14:25;;;;;;;1.35;0.80;;;-4.70;99.90;;;;;;5051511;28;20080;-67
2021/12/25 08:16:56;;;;;;;1.05;0.47;;;-4.70;99.90;;;;;;5047660;28;20045;-65
2021/12/25 08:19:22;;;;;;;4.97;0.90;;;-4.70;99.90;;;;;;5047288;28;20582;-67
2021/12/25 08:21:48;;;;;;;2.70;1.00;;;-4.70;99.90;;;;;;5051536;28;20040;-67
2021/12/25 08:24:15;;;;;;;4.07;1.00;;;-4.80;99.90;;;;;;5051026;28;20076;-66
2021/12/25 08:26:41;;;;;;;4.60;0.95;;;-4.80;99.90;;;;;;5049293;28;20045;-66
2021/12/25 08:29:07;;;;;;;1.95;1.08;;;-4.70;99.90;;;;;;5045405;28;20045;-65
2021/12/25 08:31:33;;;;;;;4.38;1.20;;;-4.80;99.90;;;;;;5052453;28;20132;-66
2021/12/25 08:33:58;;;;;;;1.98;0.93;;;-4.70;99.90;;;;;;5051109;28;20426;-67
2021/12/25 08:36:24;;;;;;;2.67;0.77;;;-4.20;99.90;;;;;;5027976;28;20766;-67
2021/12/25 08:38:50;;;;;;;5.38;0.98;;;-4.70;99.90;;;;;;5051943;28;20124;-65
2021/12/25 08:41:16;;;;;;;2.83;0.85;;;-4.60;99.90;;;;;;5052530;28;20080;-67
2021/12/25 08:43:49;;;;;;;10.18;1.50;;;-4.60;99.90;;;;;;5047758;28;20045;-65
2021/12/25 08:46:18;;;;;;;5.97;1.25;;;-4.50;99.90;;;;;;5050958;28;20080;-66
2021/12/25 08:48:45;;;;;;;3.85;1.02;;;-4.40;99.90;;;;;;5033109;28;20071;-67
2021/12/25 08:51:11;;;;;;;3.70;1.00;;;-4.40;99.90;;;;;;5051130;28;20036;-67
2021/12/25 08:53:37;;;;;;;3.92;1.40;;;-4.30;99.90;;;;;;5052237;28;20045;-65
2021/12/25 08:56:03;;;;;;;4.40;1.00;;;-4.30;99.90;;;;;;5051608;28;20454;-66
2021/12/25 08:58:31;;;;;;;4.45;1.13;;;-4.20;99.90;;;;;;5051603;28;20033;-67
2021/12/25 09:01:01;;;;;;;1.53;1.03;;;-4.20;99.90;;;;;;5047567;28;20055;-65
2021/12/25 09:03:28;;;;;;;3.97;1.67;;;-4.20;99.90;;;;;;5047585;28;20056;-66
2021/12/25 09:05:59;;;;;;;8.48;1.35;;;-4.10;99.90;;;;;;5051303;28;20113;-66
2021/12/25 09:08:25;;;;;;;2.67;1.13;;;-4.10;99.90;;;;;;5051069;28;20048;-66
2021/12/25 09:10:52;;;;;;;2.17;0.82;;;-4.00;99.90;;;;;;5047969;28;20067;-67
2021/12/25 09:13:17;;;;;;;6.13;1.40;;;-4.00;99.90;;;;;;5050404;28;20482;-65
2021/12/25 09:15:43;;;;;;;2.85;1.23;;;-4.00;99.90;;;;;;5051413;28;20041;-66
2021/12/25 09:18:09;;;;;;;3.10;1.10;;;-3.90;99.90;;;;;;5045106;28;20049;-66
2021/12/25 09:20:35;;;;;;;2.63;1.05;;;-3.80;99.90;;;;;;5051555;28;20091;-65
2021/12/25 09:23:01;;;;;;;13.70;1.48;;;-3.60;99.90;;;;;;5047913;28;20072;-67
2021/12/25 09:25:27;;;;;;;1.95;0.75;;;-3.40;99.90;;;;;;5049941;28;20080;-65
2021/12/25 09:27:53;;;;;;;3.88;1.00;;;-3.20;99.90;;;;;;5048640;28;20065;-66
2021/12/25 09:30:19;;;;;;;2.67;1.15;;;-3.10;99.90;;;;;;5049083;28;20045;-66
2021/12/25 09:32:45;;;;;;;4.00;1.05;;;-3.10;99.90;;;;;;5048299;28;20290;-68
2021/12/25 09:35:11;;;;;;;2.50;0.90;;;-3.10;99.90;;;;;;5046589;28;20068;-64
2021/12/25 09:37:38;;;;;;;2.38;1.02;;;-3.00;99.90;;;;;;5047515;28;20071;-65
2021/12/25 09:40:06;;;;;;;3.90;1.00;;;-2.80;99.90;;;;;;5049247;28;20460;-66
2021/12/25 09:42:34;;;;;;;2.10;1.13;;;-2.60;99.90;;;;;;5048668;28;20064;-65
2021/12/25 09:45:00;;;;;;;2.05;0.90;;;-2.50;99.90;;;;;;5048812;28;20502;-64
2021/12/25 09:47:26;;;;;;;3.40;1.02;;;-2.30;99.90;;;;;;5047392;28;20049;-65
2021/12/25 09:49:52;;;;;;;3.65;1.30;;;-2.10;99.90;;;;;;5046592;28;20480;-68
2021/12/25 09:52:19;;;;;;;7.07;0.98;;;-1.90;99.90;;;;;;5047344;28;20051;-66
2021/12/25 09:54:45;;;;;;;4.43;1.52;;;-1.80;99.90;;;;;;5050296;28;20110;-67
2021/12/25 09:57:10;;;;;;;4.38;0.82;;;-1.80;99.90;;;;;;5063666;28;20049;-65
2021/12/25 09:59:36;;;;;;;5.80;1.45;;;-1.90;99.90;;;;;;5048081;28;20045;-66
2021/12/25 10:02:02;;;;;;;3.22;1.02;;;-2.30;99.90;;;;;;5048484;28;20045;-67
2021/12/25 10:04:50;;;;;;;4.45;1.00;;;-2.60;99.90;;;;;;5048314;28;20464;-66
2021/12/25 10:07:20;;;;;;;6.10;1.05;;;-2.90;99.90;;;;;;5056019;28;20053;-66
2021/12/25 10:10:10;;;;;;;4.15;1.17;;;-3.10;99.90;;;;;;5046610;28;20063;-66
2021/12/25 10:12:45;;;;;;;2.83;1.05;;;-3.30;99.90;;;;;;5051905;28;20049;-65
2021/12/25 10:15:19;;;;;;;2.75;1.48;;;-3.40;99.90;;;;;;5049019;28;20469;-66
2021/12/25 10:17:50;;;;;;;3.63;1.10;;;-3.50;99.90;;;;;;5030024;28;20480;-65
2021/12/25 10:20:20;;;;;;;7.63;1.20;;;-3.50;99.90;;;;;;5031240;28;20065;-65
2021/12/25 10:23:08;;;;;;;1.70;1.02;;;-3.50;99.90;;;;;;5030598;28;20088;-65
2021/12/25 10:25:42;;;;;;;3.22;1.40;;;-3.50;99.90;;;;;;5038052;28;20045;-66
2021/12/25 10:28:08;;;;;;;2.05;1.10;;;-3.50;99.90;;;;;;5051433;28;20045;-65
2021/12/25 10:30:59;;;;;;;2.03;1.00;;;-3.50;99.90;;;;;;5049972;28;20130;-66
2021/12/25 10:33:30;;;;;;;1.85;0.77;;;-3.50;99.90;;;;;;5051723;28;20102;-65
2021/12/25 10:35:58;;;;;;;5.75;1.27;;;-3.50;99.90;;;;;;5049844;28;20139;-66
2021/12/25 10:38:24;;;;;;;2.92;1.23;;;-3.50;99.90;;;;;;5034151;28;20045;-66
2021/12/25 10:41:07;;;;;;;3.42;1.02;;;-3.40;99.90;;;;;;5052639;28;20491;-66
2021/12/25 10:43:35;;;;;;;4.00;1.33;;;-3.40;99.90;;;;;;5018518;28;20085;-63
2021/12/25 10:46:02;;;;;;;2.10;1.17;;;-3.30;99.90;;;;;;5035493;28;20085;-66
2021/12/25 10:48:30;;;;;;;9.15;1.38;;;-3.30;99.90;;;;;;5035417;28;20128;-66
2021/12/25 10:50:57;;;;;;;2.15;1.05;;;-3.20;99.90;;;;;;5038971;28;20171;-64
2021/12/25 10:53:30;;;;;;;3.63;1.30;;;-3.20;99.90;;;;;;5056526;28;20067;-65
2021/12/25 10:56:08;;;;;;;5.32;1.30;;;-3.10;99.90;;;;;;5055223;28;20041;-65
2021/12/25 10:58:34;;;;;;;3.13;1.37;;;-3.10;99.90;;;;;;5054199;28;20086;-65
2021/12/25 11:01:00;;;;;;;4.35;1.48;;;-3.10;99.90;;;;;;5055531;28;20036;-65
2021/12/25 11:03:29;;;;;;;3.70;1.30;;;-3.10;99.90;;;;;;5056744;28;20133;-66
2021/12/25 11:06:20;;;;;;;5.25;1.30;;;-3.00;99.90;;;;;;5054077;28;20368;-65
2021/12/25 11:08:47;;;;;;;3.03;1.30;;;-3.00;99.90;;;;;;5054622;28;20436;-66
2021/12/25 11:11:19;;;;;;;5.00;1.40;;;-3.00;99.90;;;;;;5052379;28;20048;-66
2021/12/25 11:13:48;;;;;;;2.78;1.38;;;-3.00;99.90;;;;;;5055027;28;20041;-63
2021/12/25 11:16:23;;;;;;;1.80;0.95;;;-2.90;99.90;;;;;;5055484;28;20048;-66
2021/12/25 11:19:15;;;;;;;5.25;2.30;;;-3.00;99.90;;;;;;5054473;28;20131;-65
2021/12/25 11:21:43;;;;;;;4.60;1.25;;;-3.00;99.90;;;;;;5054848;28;20124;-65
2021/12/25 11:24:19;;;;;;;2.03;1.02;;;-2.90;99.90;;;;;;5053543;28;20041;-66
2021/12/25 11:26:49;;;;;;;1.80;1.08;;;-2.90;99.90;;;;;;5054488;28;20522;-66
2021/12/25 11:29:16;;;;;;;7.75;1.55;;;-2.90;99.90;;;;;;5054735;28;20313;-65
2021/12/25 11:31:43;;;;;;;5.65;1.80;;;-2.90;99.90;;;;;;5054500;28;20048;-65
2021/12/25 11:34:09;;;;;;;3.72;1.48;;;-2.90;99.90;;;;;;5054695;28;20044;-65
2021/12/25 11:36:45;;;;;;;2.95;1.15;;;-2.90;99.90;;;;;;5055047;28;20039;-65
2021/12/25 11:39:11;;;;;;;5.18;2.08;;;-2.80;99.90;;;;;;5054610;28;20382;-65
2021/12/25 11:41:39;;;;;;;2.10;1.20;;;-2.80;99.90;;;;;;5055021;28;20055;-66
2021/12/25 11:44:25;;;;;;;5.32;1.33;;;-2.80;99.90;;;;;;5054880;28;20138;-65
2021/12/25 11:46:51;;;;;;;9.25;1.45;;;-2.80;99.90;;;;;;5054721;28;20073;-65
2021/12/25 11:49:16;;;;;;;2.33;1.25;;;-2.80;99.90;;;;;;5054737;28;20517;-65
2021/12/25 11:51:44;;;;;;;7.32;1.38;;;-2.80;99.90;;;;;;5053434;28;20056;-66
2021/12/25 11:54:54;;;;;;;3.20;1.30;;;-2.60;99.90;;;;;;5053046;28;20116;-66
2021/12/25 11:59:50;;;;;;;4.40;2.00;;;-2.80;99.90;;;;;;5054597;28;20065;-65
2021/12/25 12:02:41;;;;;;;8.20;1.70;;;-2.70;99.90;;;;;;5036502;28;20144;-65
2021/12/25 12:05:21;;;;;;;4.03;1.38;;;-2.70;99.90;;;;;;5052584;28;20044;-65
2021/12/25 12:08:07;;;;;;;6.60;1.65;;;-2.70;99.90;;;;;;5034839;28;20128;-65
2021/12/25 12:10:50;;;;;;;5.00;1.25;;;-2.70;99.90;;;;;;5059114;28;20163;-66
2021/12/25 12:13:19;;;;;;;2.17;1.13;;;-2.70;99.90;;;;;;5053722;28;20466;-66
2021/12/25 12:15:46;;;;;;;2.97;1.50;;;-2.70;99.90;;;;;;5053664;28;20056;-65
2021/12/25 12:18:25;;;;;;;3.83;1.23;;;-2.60;99.90;;;;;;5041959;28;20049;-66
2021/12/25 12:20:59;;;;;;;2.38;0.98;;;-2.60;99.90;;;;;;5049167;28;20041;-66
2021/12/25 12:26:44;;;;;;;2.45;1.20;;;-2.60;99.90;;;;;;5050628;28;20484;-66
2021/12/25 12:29:11;;;;;;;3.97;1.23;;;-2.60;99.90;;;;;;5053875;28;20052;-66
2021/12/25 12:31:39;;;;;;;2.85;1.25;;;-2.60;99.90;;;;;;5053891;28;20045;-67
2021/12/25 12:34:29;;;;;;;6.85;2.50;;;-2.50;99.90;;;;;;5052189;28;20693;-67
2021/12/25 12:37:13;;;;;;;3.30;1.25;;;-2.60;99.90;;;;;;5053052;28;20060;-66
2021/12/25 12:40:05;;;;;;;8.35;1.70;;;-2.50;99.90;;;;;;5053409;28;20055;-66
2021/12/25 12:42:50;;;;;;;2.38;1.10;;;-2.60;99.90;;;;;;5054068;28;20052;-64
2021/12/25 12:45:23;;;;;;;4.65;1.35;;;-2.50;99.90;;;;;;5053576;28;20135;-66
2021/12/25 12:48:11;;;;;;;4.60;1.42;;;-2.50;99.90;;;;;;5068583;28;20045;-65
2021/12/25 12:50:40;;;;;;;3.00;1.20;;;-2.50;99.90;;;;;;5052216;28;20049;-66
2021/12/25 12:53:09;;;;;;;;;;;-2.50;99.90;;;;;;5051989;28;20368;-66
2021/12/25 12:55:43;;;;;;;4.50;1.60;;;-2.50;99.90;;;;;;5052274;28;19921;-65
2021/12/25 12:58:17;;;;;;;4.45;1.25;;;-2.50;99.90;;;;;;5052979;28;20286;-66
2021/12/25 13:00:48;;;;;;;5.43;1.17;;;-2.50;99.90;;;;;;5046528;28;20038;-66
2021/12/25 13:03:14;;;;;;;4.32;1.25;;;-2.50;99.90;;;;;;5050634;28;20049;-66
2021/12/25 13:05:43;;;;;;;4.93;1.45;;;-2.50;99.90;;;;;;5051829;28;20443;-66
2021/12/25 13:08:24;;;;;;;5.85;1.40;;;-2.40;99.90;;;;;;5051599;28;20037;-67
2021/12/25 13:10:51;;;;;;;3.55;1.58;;;-2.50;99.90;;;;;;5052018;28;20541;-65
2021/12/25 13:13:19;;;;;;;4.80;1.30;;;-2.50;99.90;;;;;;5052249;28;20436;-66
2021/12/25 13:15:48;;;;;;;7.78;1.80;;;-2.50;99.90;;;;;;5067327;28;20107;-66
2021/12/25 13:18:16;;;;;;;4.95;1.50;;;-2.50;99.90;;;;;;5047089;28;20073;-67
2021/12/25 13:20:46;;;;;;;5.25;1.50;;;-2.50;99.90;;;;;;5047544;28;20049;-66
2021/12/25 13:23:20;;;;;;;10.75;1.48;;;-2.50;99.90;;;;;;5051652;28;20048;-66
2021/12/25 13:25:58;;;;;;;4.25;1.70;;;-2.50;99.90;;;;;;5051904;28;20099;-66
2021/12/25 13:28:27;;;;;;;3.40;1.48;;;-2.50;99.90;;;;;;5049829;28;20045;-65
2021/12/25 13:31:03;;;;;;;5.13;1.65;;;-2.50;99.90;;;;;;5052513;28;20100;-67
2021/12/25 13:33:31;;;;;;;8.45;1.85;;;-2.50;99.90;;;;;;5052024;28;20490;-67
2021/12/25 13:36:02;;;;;;;6.95;1.90;;;-2.50;99.90;;;;;;5050063;28;20048;-66
2021/12/25 13:38:29;;;;;;;4.40;1.55;;;-2.50;99.90;;;;;;5051904;28;20045;-67
2021/12/25 13:40:55;;;;;;;4.38;1.50;;;-2.50;99.90;;;;;;5050538;28;20086;-66
2021/12/25 13:43:21;;;;;;;5.18;1.80;;;-2.50;99.90;;;;;;5052457;28;20044;-66
2021/12/25 13:45:55;;;;;;;4.88;1.27;;;-2.50;99.90;;;;;;5039781;28;20430;-66
2021/12/25 13:48:21;;;;;;;4.85;1.42;;;-2.50;99.90;;;;;;5032198;28;20053;-65
2021/12/25 13:50:47;;;;;;;8.63;1.48;;;-2.50;99.90;;;;;;5037548;28;20037;-67
2021/12/25 13:53:20;;;;;;;2.72;1.33;;;-2.20;99.90;;;;;;5051997;28;20063;-67
2021/12/25 13:55:47;;;;;;;2.70;1.23;;;-2.50;99.90;;;;;;5050708;28;20040;-66
2021/12/25 13:58:15;;;;;;;4.03;1.73;;;-2.50;99.90;;;;;;5051393;28;20527;-67
2021/12/25 14:00:46;;;;;;;2.55;1.38;;;-2.60;99.90;;;;;;5049845;28;20077;-66
2021/12/25 14:03:15;;;;;;;4.53;1.75;;;-2.50;99.90;;;;;;5052205;28;20531;-66
2021/12/25 14:05:43;;;;;;;2.72;1.40;;;-2.50;99.90;;;;;;5052107;28;20041;-66
2021/12/25 14:08:10;;;;;;;6.57;1.67;;;-2.50;99.90;;;;;;5051614;28;20484;-66